Latest Weather Observations for Bedout Island

IDW60801

Issued at 2:02 pm WST Wednesday 6 May 2015 (issued every 30 minutes, with the page automatically refreshed every 10 minutes)

About weather observations | Map of weather stations | Latest weather observations for WA | Other Formats
Station Details ID: 004100 Name: BEDOUT ISLAND Lat: -19.59 Lon: 119.10 Height: 8.6 m
Data from the previous 72 hours. | See also: Recent months for locations in Western Australia
Date/Time
WST
Temp
°C
App
Temp
°C
Dew
Point
Rel
Hum
%
Delta-T
°C
Wind Press
QNH
hPa
Press
MSL
hPa
Rain
since 9 am
mm
Dir
 
Spd
km/h
Gust
km/h
Spd
kts
Gust
kts
06/02:00pm 27.4 23.8 13.0 41 8.4 SE 24 26 13 14 1014.0 - -
06/01:30pm 27.1 22.4 12.0 39 8.7 SE 28 32 15 17 1014.2 - -
06/01:00pm 26.8 21.4 10.9 37 9.0 ESE 30 35 16 19 1014.6 - -
06/12:30pm 26.4 20.9 11.7 40 8.4 SE 32 37 17 20 1015.0 - -
06/11:30am 25.7 19.4 11.1 40 8.2 SE 35 41 19 22 1015.9 - -
06/11:00am 25.4 18.8 11.2 41 8.0 SE 37 43 20 23 1016.4 - -
06/10:30am 24.9 18.2 12.2 45 7.3 ESE 39 46 21 25 1016.7 - -
06/10:00am 24.3 16.2 10.2 41 7.8 ESE 43 48 23 26 1016.9 - -
06/09:30am 24.0 15.7 9.9 41 7.7 ESE 44 52 24 28 1017.0 - -
06/09:00am 23.6 15.1 10.6 44 7.2 ESE 46 52 25 28 1016.8 1016.7 -
06/08:30am 23.4 14.8 11.5 47 6.7 ESE 48 57 26 31 1016.7 - -
06/08:00am 23.0 14.3 10.1 44 7.0 ESE 46 56 25 30 1016.6 - -
06/07:30am 22.5 14.8 10.0 45 6.8 SE 41 52 22 28 1016.4 - -
06/07:00am 22.3 13.1 8.1 40 7.5 SE 46 54 25 29 1016.1 - -
06/06:30am 22.0 13.5 9.2 44 6.8 SE 44 52 24 28 1015.8 - -
06/06:00am 22.4 13.3 9.9 45 6.8 ESE 48 56 26 30 1015.4 1015.3 -
06/05:30am 22.5 13.7 9.6 44 7.0 ESE 46 56 25 30 1015.1 - -
06/05:00am 22.7 13.4 9.1 42 7.3 ESE 48 56 26 30 1014.8 - -
06/04:30am 22.7 14.2 10.5 46 6.7 SE 46 52 25 28 1014.7 - -
06/04:00am 22.9 14.0 10.7 46 6.7 SE 48 56 26 30 1014.7 - -
06/03:30am 23.1 15.0 10.9 46 6.8 SE 44 52 24 28 1014.7 - -
06/03:00am 23.2 14.8 10.9 46 6.8 SE 46 56 25 30 1014.8 1014.7 -
06/02:30am 23.6 14.6 10.3 43 7.3 SE 48 57 26 31 1014.8 - -
06/02:00am 23.5 16.0 12.2 49 6.4 SE 43 50 23 27 1015.1 - -
06/01:30am 23.6 16.8 13.2 52 6.0 SE 41 46 22 25 1015.3 - -
06/01:00am 23.8 16.6 11.8 47 6.8 SE 41 48 22 26 1015.3 - -
06/12:30am 24.1 18.2 13.6 52 6.1 SE 37 43 20 23 1015.5 - -
06/12:00am 24.6 18.1 12.9 48 6.8 SE 39 46 21 25 1015.5 1015.4 -
 
Date/Time
WST
Temp
°C
App
Temp
°C
Dew
Point
Rel
Hum
%
Delta-T
°C
Wind Press
QNH
hPa
Press
MSL
hPa
Rain
since 9 am
mm
Dir
 
Spd
km/h
Gust
km/h
Spd
kts
Gust
kts
05/11:30pm 24.7 18.4 13.6 50 6.5 SE 39 46 21 25 1015.5 - -
05/11:00pm 24.9 18.7 13.8 50 6.5 SE 39 46 21 25 1015.4 - -
05/10:30pm 25.1 19.1 14.3 51 6.4 SE 39 46 21 25 1015.6 - -
05/10:00pm 25.2 19.3 13.7 49 6.8 SE 37 44 20 24 1015.6 - -
05/09:30pm 25.3 19.7 14.4 50 6.5 SE 37 44 20 24 1015.6 - -
05/09:00pm 25.4 20.1 15.4 54 6.0 SE 37 44 20 24 1015.6 1015.5 -
05/08:30pm 25.6 20.0 14.4 50 6.7 SE 37 43 20 23 1015.3 - -
05/08:00pm 25.5 20.2 14.3 50 6.7 SE 35 43 19 23 1014.9 - -
05/07:30pm 25.1 21.0 16.0 57 5.5 SE 32 39 17 21 1014.5 - -
05/07:00pm 25.2 21.9 16.1 57 5.6 SE 28 33 15 18 1014.0 - -
05/06:30pm 25.3 22.4 17.0 60 5.1 SE 28 32 15 17 1013.4 - -
05/06:00pm 25.2 22.3 17.1 60 5.0 SE 28 32 15 17 1013.2 1013.1 -
05/05:30pm 25.4 23.1 17.6 62 4.9 SE 26 30 14 16 1012.7 - -
05/05:00pm 26.0 23.1 17.1 58 5.5 SE 28 32 15 17 1012.4 - -
05/04:30pm 26.4 23.4 16.9 56 5.9 SE 28 33 15 18 1012.3 - -
05/04:00pm 26.8 23.3 16.4 53 6.4 SE 30 33 16 18 1012.3 - -
05/03:30pm 27.2 23.0 15.6 49 7.1 SE 32 37 17 20 1012.4 - -
05/03:00pm 27.3 22.2 14.7 46 7.6 SE 35 41 19 22 1012.4 1012.3 -
05/02:30pm 27.2 21.7 14.6 46 7.6 SE 37 41 20 22 1012.5 - -
05/02:00pm 27.1 21.5 14.5 46 7.6 SE 37 43 20 23 1012.8 - -
05/01:30pm 27.0 21.4 15.4 49 7.1 SE 39 43 21 23 1013.2 - -
05/01:00pm 26.9 21.0 14.6 46 7.4 SE 39 44 21 24 1013.6 - -
05/12:30pm 26.3 19.4 14.1 47 7.2 SE 43 50 23 27 1014.0 - -
05/12:00pm 26.4 19.9 15.1 49 6.8 SE 43 52 23 28 1014.6 1014.5 -
05/11:30am 25.9 18.7 13.7 47 7.2 SE 44 52 24 28 1015.1 - -
05/11:00am 25.7 18.7 14.2 49 6.8 ESE 44 52 24 28 1015.7 - -
05/10:30am 25.3 17.5 14.1 50 6.6 ESE 48 54 26 29 1016.0 - -
05/10:00am 25.0 16.6 13.5 48 6.7 ESE 50 57 27 31 1016.2 - -
05/09:30am 24.9 16.5 13.5 49 6.7 ESE 50 57 27 31 1016.2 - -
05/09:00am 24.9 16.5 14.7 53 6.1 ESE 52 61 28 33 1015.9 1015.8 -
05/08:30am 24.6 16.7 13.8 51 6.3 ESE 48 56 26 30 1015.7 - -
05/08:00am 24.8 17.1 15.4 56 5.7 ESE 50 56 27 30 1015.4 - -
05/07:30am 24.3 16.3 13.5 51 6.3 ESE 48 56 26 30 1015.2 - -
05/07:00am 24.0 17.2 14.7 56 5.5 ESE 44 54 24 29 1015.1 - -
05/06:30am 23.5 16.9 14.8 58 5.2 SE 43 50 23 27 1014.7 - -
05/06:00am 23.6 17.2 15.4 60 4.9 SE 43 50 23 27 1014.4 1014.3 -
05/05:30am 23.9 17.8 16.2 62 4.7 SE 43 50 23 27 1014.0 - -
05/05:00am 24.3 18.1 15.8 59 5.1 SE 43 50 23 27 1013.8 - -
05/04:30am 24.2 19.7 17.4 65 4.2 SE 37 43 20 23 1013.7 - -
05/04:00am 24.5 19.9 17.0 63 4.6 SE 37 43 20 23 1013.6 - -
05/03:30am 24.6 20.7 17.8 66 4.3 SE 35 39 19 21 1013.7 - -
05/03:00am 24.8 20.9 17.8 65 4.4 SE 35 39 19 21 1013.8 1013.7 -
05/02:30am 25.1 21.9 18.5 67 4.2 SE 33 37 18 20 1013.8 - -
05/02:00am 25.1 23.3 18.8 68 4.0 SE 26 30 14 16 1014.0 - -
05/01:30am 25.3 23.8 18.5 66 4.3 SSE 24 28 13 15 1014.2 - -
05/01:00am 25.4 24.3 19.5 70 3.8 S 24 28 13 15 1014.3 - -
05/12:30am 25.9 25.5 20.9 74 3.3 S 24 26 13 14 1014.4 - -
05/12:00am 25.9 25.7 22.0 79 2.6 SSW 26 30 14 16 1014.4 1014.3 -
 
Date/Time
WST
Temp
°C
App
Temp
°C
Dew
Point
Rel
Hum
%
Delta-T
°C
Wind Press
QNH
hPa
Press
MSL
hPa
Rain
since 9 am
mm
Dir
 
Spd
km/h
Gust
km/h
Spd
kts
Gust
kts
04/11:30pm 26.0 25.9 22.3 80 2.5 SSW 26 30 14 16 1014.6 - -
04/11:00pm 25.9 25.9 23.0 84 2.0 SSW 28 33 15 18 1014.9 - -
04/10:30pm 26.1 26.7 22.8 82 2.2 SW 24 26 13 14 1014.9 - -
04/10:00pm 25.9 27.0 23.0 84 2.0 SW 22 24 12 13 1015.0 - -
04/09:30pm 26.0 27.8 23.3 85 1.8 WSW 19 20 10 11 1015.1 - -
04/09:00pm 26.0 28.1 23.1 84 2.0 ENE 17 19 9 10 1015.1 1015.0 -
04/08:30pm 25.8 28.2 22.9 84 2.0 ENE 15 17 8 9 1014.9 - -
04/08:00pm 25.3 27.4 22.4 84 1.9 ENE 15 17 8 9 1014.9 - -
04/07:30pm 25.2 27.2 22.3 84 1.9 ENE 15 17 8 9 1014.6 - -
04/07:00pm 25.3 27.3 22.2 83 2.1 ENE 15 15 8 8 1014.2 - -
04/06:30pm 25.3 27.5 21.8 81 2.3 E 13 15 7 8 1013.8 - -
04/06:00pm 25.4 27.2 21.1 77 2.8 E 13 13 7 7 1013.5 1013.4 -
04/05:30pm 26.2 28.0 21.2 74 3.3 E 13 13 7 7 1013.2 - -
04/04:30pm 27.6 29.8 21.2 68 4.3 E 11 13 6 7 1012.6 - -
04/04:00pm 28.4 31.1 21.4 66 4.7 E 9 11 5 6 1012.5 - -
04/03:30pm 28.6 30.9 21.4 65 4.8 E 11 13 6 7 1012.5 - -
04/03:00pm 28.8 31.1 21.3 64 5.0 E 11 13 6 7 1012.5 1012.4 -
04/02:30pm 28.3 30.3 20.8 63 5.0 E 11 11 6 6 1012.6 - -
04/02:00pm 28.8 31.3 21.8 66 4.7 ESE 11 13 6 7 1012.9 - -
04/01:30pm 28.7 31.1 21.5 65 4.8 SE 11 13 6 7 1013.1 - -
04/01:00pm 28.8 30.8 21.6 65 4.8 SE 13 15 7 8 1013.5 - -
04/12:30pm 27.7 29.4 21.0 67 4.4 SE 13 15 7 8 1014.0 - -
04/12:00pm 27.9 30.6 22.1 70 3.9 SE 11 13 6 7 1014.2 1014.1 -
04/11:30am 27.6 29.8 21.9 71 3.8 SE 13 15 7 8 1014.6 - -
04/11:00am 27.8 29.7 22.1 71 3.8 SE 15 17 8 9 1014.8 - -
04/10:30am 27.4 28.8 21.9 72 3.7 SSE 17 20 9 11 1015.1 - -
04/10:00am 27.3 29.1 21.8 72 3.7 SSE 15 17 8 9 1015.1 - -
04/09:30am 27.2 29.4 21.9 73 3.6 S 13 17 7 9 1015.1 - -
04/09:00am 26.4 28.8 22.3 78 2.8 S 13 17 7 9 1014.9 1014.8 -
04/08:30am 25.9 29.3 24.1 90 1.2 SSE 13 17 7 9 1014.7 - -
04/08:00am 25.3 28.4 24.8 97 0.3 S 17 22 9 12 1014.6 - -
04/07:30am 24.4 26.9 24.4 100 0.0 S 19 22 10 12 1014.2 - -
04/07:00am 23.8 25.4 23.8 100 0.0 S 22 26 12 14 1013.9 - -
04/06:30am 24.0 25.9 23.5 97 0.3 S 19 22 10 12 1013.5 - -
04/06:00am 24.4 26.4 23.0 92 0.9 S 17 20 9 11 1013.3 1013.2 -
04/05:30am 25.0 27.0 22.9 88 1.4 SW 17 19 9 10 1013.0 - -
04/05:00am 25.0 26.9 22.7 87 1.5 WSW 17 20 9 11 1012.8 - -
04/04:30am 24.9 26.7 22.6 87 1.5 WSW 17 20 9 11 1012.7 - -
04/04:00am 25.0 27.1 22.5 86 1.7 WSW 15 20 8 11 1012.5 - -
04/03:30am 25.1 26.8 22.4 85 1.8 WSW 17 20 9 11 1012.6 - -
04/03:00am 25.1 26.1 22.2 84 1.9 W 20 22 11 12 1012.6 1012.5 -
04/02:30am 25.3 26.3 22.2 83 2.1 WSW 20 24 11 13 1012.7 - -
04/02:00am 25.3 25.5 22.0 82 2.2 WSW 24 28 13 15 1012.9 - -
04/01:30am 25.4 25.8 22.5 84 2.0 WSW 24 28 13 15 1013.2 - -
04/01:00am 25.3 25.7 22.4 84 1.9 WSW 24 28 13 15 1013.3 - -
04/12:30am 25.4 26.2 22.5 84 2.0 W 22 24 12 13 1013.5 - -
04/12:00am 25.5 26.6 22.4 83 2.1 W 20 24 11 13 1013.7 1013.6 -
 
Date/Time
WST
Temp
°C
App
Temp
°C
Dew
Point
Rel
Hum
%
Delta-T
°C
Wind Press
QNH
hPa
Press
MSL
hPa
Rain
since 9 am
mm
Dir
 
Spd
km/h
Gust
km/h
Spd
kts
Gust
kts
03/11:30pm 25.4 26.8 22.5 84 2.0 W 19 20 10 11 1013.8 - -
03/11:00pm 25.2 26.6 22.5 85 1.8 WSW 19 22 10 12 1014.0 - -
03/10:30pm 25.2 26.4 22.5 85 1.8 WSW 20 24 11 13 1014.1 - -
03/10:00pm 25.2 26.6 22.5 85 1.8 WSW 19 22 10 12 1014.2 - -
03/09:30pm 25.3 26.6 22.4 84 1.9 WSW 19 22 10 12 1014.3 - -
03/09:00pm 25.2 26.5 22.3 84 1.9 WSW 19 20 10 11 1014.3 1014.2 -
03/08:30pm 25.3 26.3 22.2 83 2.1 SW 20 24 11 13 1014.3 - -
03/08:00pm 25.4 26.0 22.1 82 2.2 SW 22 26 12 14 1013.9 - -
03/07:30pm 25.2 25.1 22.3 84 1.9 WSW 26 28 14 15 1013.5 - -
03/07:00pm 25.1 24.7 22.4 85 1.8 SW 28 32 15 17 1013.2 - -
03/06:30pm 25.3 25.7 22.4 84 1.9 SW 24 28 13 15 1012.8 - -
03/06:00pm 25.2 25.2 21.7 81 2.3 WSW 24 28 13 15 1012.6 1012.5 -
03/05:30pm 25.5 26.0 21.2 77 2.8 WSW 20 24 11 13 1012.3 - -
03/05:00pm 26.3 27.2 21.5 75 3.2 WSW 19 22 10 12 1012.3 - -
03/04:30pm 26.7 27.5 21.7 74 3.3 WSW 20 24 11 13 1012.3 - -
03/04:00pm 26.5 27.7 21.5 74 3.3 WSW 17 20 9 11 1012.3 - -
03/03:30pm 27.0 28.0 21.7 73 3.5 WSW 19 20 10 11 1012.3 - -
03/03:00pm 27.0 27.9 21.5 72 3.7 SW 19 20 10 11 1012.2 1012.1 -
03/02:30pm 26.9 28.3 21.9 74 3.3 SW 17 20 9 11 1012.2 - -

Other Formats:

Comma delimited format used in spreadsheet applications
http://www.bom.gov.au/fwo/IDW60801/IDW60801.94310.axf

JavaScript Object Notation format (JSON) in row-major order
http://www.bom.gov.au/fwo/IDW60801/IDW60801.94310.json